createdAt,value
2023-03-02T00:01:48.149Z,33.97
2023-03-02T00:04:18.783Z,34.63
2023-03-02T00:06:46.728Z,35.77
2023-03-02T00:09:14.710Z,33.07
2023-03-02T00:11:43.084Z,34.27
2023-03-02T00:14:11.064Z,34.47
2023-03-02T00:16:40.268Z,34.43
2023-03-02T00:19:09.565Z,34.87
2023-03-02T00:21:37.505Z,33.37
2023-03-02T00:24:06.301Z,34.20
2023-03-02T00:26:35.260Z,34.10
2023-03-02T00:29:03.264Z,34.13
2023-03-02T00:31:31.314Z,35.23
2023-03-02T00:33:59.300Z,33.90
2023-03-02T00:36:28.751Z,33.87
2023-03-02T00:38:57.369Z,34.30
2023-03-02T00:41:25.358Z,34.03
2023-03-02T00:43:53.314Z,37.40
2023-03-02T00:46:23.346Z,38.17
2023-03-02T00:48:52.819Z,39.37
2023-03-02T00:51:21.284Z,36.23
2023-03-02T00:53:50.535Z,38.67
2023-03-02T00:56:18.474Z,43.10
2023-03-02T00:58:50.350Z,39.80
2023-03-02T01:01:18.894Z,42.30
2023-03-02T01:03:50.583Z,43.27
2023-03-02T01:06:22.021Z,40.43
2023-03-02T01:08:51.379Z,40.50
2023-03-02T01:11:21.650Z,41.13
2023-03-02T01:13:50.775Z,39.83
2023-03-02T01:16:19.104Z,40.50
2023-03-02T01:18:47.073Z,38.33
2023-03-02T01:21:16.790Z,40.20
2023-03-02T01:23:44.858Z,39.77
2023-03-02T01:26:14.183Z,40.23
2023-03-02T01:28:42.077Z,39.33
2023-03-02T01:31:10.187Z,39.23
2023-03-02T01:33:38.152Z,43.30
2023-03-02T01:36:06.935Z,42.10
2023-03-02T01:38:34.884Z,43.27
2023-03-02T01:41:02.871Z,42.40
2023-03-02T01:43:32.299Z,45.33
2023-03-02T01:46:02.548Z,46.37
2023-03-02T01:48:48.190Z,47.63
2023-03-02T01:51:23.951Z,47.53
2023-03-02T01:53:57.103Z,50.57
2023-03-02T01:56:31.381Z,46.40
2023-03-02T01:59:03.773Z,45.33
2023-03-02T02:01:34.736Z,47.00
2023-03-02T02:04:03.014Z,48.60
2023-03-02T02:06:36.576Z,48.20
2023-03-02T02:09:06.281Z,53.67
2023-03-02T02:11:34.215Z,53.20
2023-03-02T02:14:03.994Z,57.57
2023-03-02T02:16:35.017Z,53.60
2023-03-02T02:19:04.793Z,61.70
2023-03-02T02:21:33.017Z,50.77
2023-03-02T02:24:10.221Z,45.33
2023-03-02T02:26:42.827Z,43.53
2023-03-02T02:29:14.649Z,45.40
2023-03-02T02:31:47.983Z,45.00
2023-03-02T02:34:22.682Z,44.13
2023-03-02T02:36:56.838Z,49.13
2023-03-02T02:39:28.930Z,45.27
2023-03-02T02:42:02.339Z,44.03
2023-03-02T02:44:30.817Z,42.37
2023-03-02T02:46:58.851Z,39.63
2023-03-02T02:49:31.519Z,39.77
2023-03-02T02:52:00.507Z,38.00
2023-03-02T02:54:29.800Z,39.53
2023-03-02T02:57:02.297Z,50.33
2023-03-02T02:59:34.174Z,44.00
2023-03-02T03:02:03.018Z,41.33
2023-03-02T03:04:32.993Z,40.83
2023-03-02T03:07:03.496Z,39.80
2023-03-02T03:09:32.885Z,38.73
2023-03-02T03:12:06.505Z,38.13
2023-03-02T03:14:37.421Z,36.20
2023-03-02T03:17:11.985Z,36.53
2023-03-02T03:19:46.295Z,35.83
2023-03-02T03:22:16.938Z,34.87
2023-03-02T03:24:47.390Z,34.13
2023-03-02T03:27:18.279Z,35.03
2023-03-02T03:29:48.752Z,33.83
2023-03-02T03:32:19.405Z,33.90
2023-03-02T03:34:48.840Z,33.43
2023-03-02T03:37:23.095Z,35.43
2023-03-02T03:39:51.498Z,34.53
2023-03-02T03:42:22.337Z,35.83
2023-03-02T03:44:50.812Z,34.93
2023-03-02T03:47:18.800Z,33.63
2023-03-02T03:49:47.085Z,37.60
2023-03-02T03:52:15.230Z,38.60
2023-03-02T03:54:43.204Z,38.57
2023-03-02T03:57:12.154Z,37.77
2023-03-02T03:59:42.211Z,39.17
2023-03-02T04:02:10.172Z,37.23
2023-03-02T04:04:41.774Z,38.17
2023-03-02T04:07:15.493Z,39.43
2023-03-02T04:09:44.884Z,39.27
2023-03-02T04:12:14.690Z,40.23
2023-03-02T04:14:51.997Z,41.90
2023-03-02T04:17:20.021Z,41.17
2023-03-02T04:19:50.422Z,43.67
2023-03-02T04:22:20.022Z,44.43
2023-03-02T04:24:48.727Z,43.43
2023-03-02T04:27:17.477Z,43.23
2023-03-02T04:29:46.441Z,43.87
2023-03-02T04:32:16.496Z,46.77
2023-03-02T04:34:49.098Z,54.57
2023-03-02T04:37:17.181Z,51.93
2023-03-02T04:39:47.412Z,53.17
2023-03-02T04:42:15.427Z,52.60
2023-03-02T04:44:43.319Z,50.70
2023-03-02T04:47:11.260Z,54.30
2023-03-02T04:49:40.770Z,55.77
2023-03-02T04:52:08.737Z,49.23
2023-03-02T04:54:36.744Z,45.43
2023-03-02T04:57:04.969Z,44.83
2023-03-02T04:59:32.917Z,38.10
2023-03-02T05:02:01.714Z,39.80
2023-03-02T05:04:30.158Z,39.17
2023-03-02T05:06:59.564Z,39.50
2023-03-02T05:09:30.346Z,39.13
2023-03-02T05:11:59.851Z,38.27
2023-03-02T05:14:28.559Z,39.20
2023-03-02T05:16:56.530Z,42.20
2023-03-02T05:19:24.982Z,42.63
2023-03-02T05:21:52.961Z,42.83
2023-03-02T05:24:22.326Z,43.40
2023-03-02T05:26:50.258Z,42.87
2023-03-02T05:29:18.180Z,44.87
2023-03-02T05:31:48.348Z,43.93
2023-03-02T05:34:17.781Z,43.87
2023-03-02T05:36:46.537Z,46.47
2023-03-02T05:39:15.071Z,43.43
2023-03-02T05:41:44.410Z,43.73
2023-03-02T05:44:12.585Z,43.37
2023-03-02T05:46:40.649Z,44.37
2023-03-02T05:49:08.647Z,43.33
2023-03-02T05:51:36.608Z,42.43
2023-03-02T05:54:04.727Z,43.37
2023-03-02T05:56:33.134Z,44.63
2023-03-02T05:59:02.623Z,46.23
2023-03-02T06:01:31.017Z,47.50
2023-03-02T06:03:59.392Z,45.43
2023-03-02T06:06:27.468Z,42.10
2023-03-02T06:08:55.516Z,41.37
2023-03-02T06:11:23.439Z,39.97
2023-03-02T06:13:51.333Z,41.07
2023-03-02T06:16:20.701Z,41.87
2023-03-02T06:18:48.744Z,42.43
2023-03-02T06:21:16.790Z,41.43
2023-03-02T06:23:44.664Z,44.40
2023-03-02T06:26:13.732Z,45.77
2023-03-02T06:28:53.239Z,47.20
2023-03-02T06:31:23.221Z,46.27
2023-03-02T06:33:51.311Z,45.70
2023-03-02T06:36:19.511Z,44.77
2023-03-02T06:38:47.556Z,44.30
2023-03-02T06:41:15.556Z,47.23
2023-03-02T06:43:43.948Z,46.63
2023-03-02T06:46:12.561Z,47.23
2023-03-02T06:48:41.909Z,44.30
2023-03-02T06:51:09.922Z,43.23
2023-03-02T06:53:41.644Z,47.77
2023-03-02T06:56:09.633Z,45.60
2023-03-02T06:58:38.240Z,42.97
2023-03-02T07:01:07.756Z,41.77
2023-03-02T07:03:36.186Z,44.23
2023-03-02T07:06:05.908Z,42.17
2023-03-02T07:08:34.626Z,40.63
2023-03-02T07:11:06.239Z,40.77
2023-03-02T07:13:34.279Z,40.27
2023-03-02T07:16:06.145Z,42.13
2023-03-02T07:18:34.173Z,44.90
2023-03-02T07:21:02.134Z,46.13
2023-03-02T07:23:31.433Z,44.47
2023-03-02T07:25:59.475Z,42.30
2023-03-02T07:28:27.465Z,44.30
2023-03-02T07:30:55.945Z,45.83
2023-03-02T07:33:24.007Z,44.30
2023-03-02T07:35:52.005Z,49.97
2023-03-02T07:38:19.985Z,46.80
2023-03-02T07:40:49.407Z,45.17
2023-03-02T07:43:17.528Z,43.43
2023-03-02T07:45:45.893Z,43.50
2023-03-02T07:48:13.830Z,43.90
2023-03-02T07:50:41.769Z,40.43
2023-03-02T07:53:09.736Z,42.90
2023-03-02T07:55:41.836Z,42.27
2023-03-02T07:58:11.110Z,41.47
2023-03-02T08:00:41.254Z,42.57
2023-03-02T08:03:10.587Z,41.37
2023-03-02T08:05:38.617Z,37.97
2023-03-02T08:08:06.940Z,38.70
2023-03-02T08:10:35.775Z,37.87
2023-03-02T08:13:04.685Z,35.10
2023-03-02T08:15:33.965Z,35.90
2023-03-02T08:18:02.021Z,35.50
2023-03-02T08:20:29.962Z,32.00
2023-03-02T08:22:58.020Z,33.47
2023-03-02T08:25:25.996Z,33.97
2023-03-02T08:27:53.940Z,32.93
2023-03-02T08:30:21.988Z,32.83
2023-03-02T08:32:51.406Z,36.20
2023-03-02T08:35:22.003Z,31.67
2023-03-02T08:37:50.016Z,31.77
2023-03-02T08:40:18.005Z,30.83
2023-03-02T08:42:45.922Z,30.57
2023-03-02T08:45:14.074Z,29.73
2023-03-02T08:47:42.036Z,30.10
2023-03-02T08:50:12.361Z,29.70
2023-03-02T08:52:40.292Z,28.03
2023-03-02T08:55:10.662Z,28.60
2023-03-02T08:57:38.969Z,28.27
2023-03-02T09:00:09.217Z,27.90
2023-03-02T09:02:37.134Z,27.53
2023-03-02T09:05:05.345Z,29.17
2023-03-02T09:07:34.753Z,31.27
2023-03-02T09:10:02.689Z,30.47
2023-03-02T09:12:30.738Z,29.43
2023-03-02T09:14:58.717Z,29.33
2023-03-02T09:17:26.691Z,30.10
2023-03-02T09:19:54.632Z,32.93
2023-03-02T09:22:22.594Z,30.83
2023-03-02T09:24:51.994Z,24.37
2023-03-02T09:27:19.981Z,27.67
2023-03-02T09:29:48.066Z,25.17
2023-03-02T09:32:16.239Z,25.93
2023-03-02T09:34:44.263Z,24.60
2023-03-02T09:37:12.317Z,25.33
2023-03-02T09:39:40.544Z,24.07
2023-03-02T09:42:44.452Z,25.73
2023-03-02T09:45:28.401Z,23.93
2023-03-02T09:48:11.873Z,24.40
2023-03-02T09:50:43.431Z,25.63
2023-03-02T09:53:36.772Z,28.23
2023-03-02T09:56:05.160Z,32.23
2023-03-02T09:58:38.617Z,28.77
2023-03-02T10:01:16.382Z,23.70
2023-03-02T10:03:50.741Z,18.97
2023-03-02T10:06:18.731Z,18.10
2023-03-02T10:08:46.911Z,18.60
2023-03-02T10:11:23.333Z,19.60
2023-03-02T10:13:57.245Z,20.13
2023-03-02T10:16:33.863Z,19.67
2023-03-02T10:19:08.802Z,18.50
2023-03-02T10:21:40.683Z,16.80
2023-03-02T10:24:22.002Z,20.13
2023-03-02T10:26:54.525Z,15.40
2023-03-02T10:29:42.428Z,13.83
2023-03-02T10:32:19.873Z,15.23
2023-03-02T10:34:48.043Z,15.03
2023-03-02T10:37:18.168Z,15.17
2023-03-02T10:39:46.546Z,16.33
2023-03-02T10:42:19.012Z,17.43
2023-03-02T10:44:51.967Z,20.67
2023-03-02T10:47:25.385Z,21.10
2023-03-02T10:49:55.162Z,21.00
2023-03-02T10:52:24.694Z,20.53
2023-03-02T10:55:04.433Z,20.83
2023-03-02T10:57:37.805Z,17.40
2023-03-02T11:00:17.803Z,17.97
2023-03-02T11:02:53.421Z,16.93
2023-03-02T11:05:27.780Z,14.93
2023-03-02T11:07:57.415Z,13.50
2023-03-02T11:10:29.141Z,13.53
2023-03-02T11:12:57.395Z,11.07
2023-03-02T11:15:36.771Z,10.23
2023-03-02T11:18:09.538Z,10.50
2023-03-02T11:20:40.593Z,11.43
2023-03-02T11:23:19.552Z,11.90
2023-03-02T11:25:53.085Z,13.47
2023-03-02T11:28:35.891Z,14.10
2023-03-02T11:31:08.943Z,14.93
2023-03-02T11:33:42.869Z,13.20
2023-03-02T11:36:17.204Z,11.67
2023-03-02T11:38:49.752Z,11.73
2023-03-02T11:41:29.766Z,12.80
2023-03-02T11:44:00.805Z,11.73
2023-03-02T11:46:33.730Z,13.40
2023-03-02T11:49:06.626Z,12.23
2023-03-02T11:51:39.095Z,13.70
2023-03-02T11:54:20.240Z,13.47
2023-03-02T11:56:48.289Z,11.23
2023-03-02T11:59:20.564Z,11.50
2023-03-02T12:01:52.853Z,12.90
2023-03-02T12:04:29.380Z,11.33
2023-03-02T12:06:57.435Z,11.10
2023-03-02T12:09:43.398Z,10.97
2023-03-02T12:12:32.767Z,12.10
2023-03-02T12:15:01.021Z,12.13
2023-03-02T12:17:35.469Z,12.43
2023-03-02T12:20:28.914Z,13.13
2023-03-02T12:23:09.388Z,13.00
2023-03-02T12:25:42.052Z,12.43
2023-03-02T12:28:26.772Z,14.37
2023-03-02T12:31:03.679Z,12.63
2023-03-02T12:33:33.043Z,10.30
2023-03-02T12:36:15.181Z,10.30
2023-03-02T12:38:48.112Z,10.53
2023-03-02T12:41:29.735Z,9.30
2023-03-02T12:44:10.715Z,10.17
2023-03-02T12:46:40.290Z,11.10
2023-03-02T12:49:42.895Z,10.60
2023-03-02T12:52:24.132Z,10.13
2023-03-02T12:55:01.066Z,10.40
2023-03-02T12:57:29.409Z,11.17
2023-03-02T12:59:59.034Z,9.23
2023-03-02T13:02:29.693Z,9.17
2023-03-02T13:05:01.534Z,8.97
2023-03-02T13:07:35.401Z,8.67
2023-03-02T13:10:07.625Z,9.57
2023-03-02T13:12:37.060Z,9.97
2023-03-02T13:15:16.178Z,8.63
2023-03-02T13:17:44.565Z,10.10
2023-03-02T13:20:15.754Z,10.70
2023-03-02T13:22:43.911Z,9.70
2023-03-02T13:25:29.457Z,10.27
2023-03-02T13:28:00.677Z,12.37
2023-03-02T13:30:30.510Z,12.50
2023-03-02T13:33:03.138Z,11.60
2023-03-02T13:35:34.843Z,12.07
2023-03-02T13:38:05.763Z,11.53
2023-03-02T13:40:41.353Z,12.20
2023-03-02T13:43:23.588Z,10.93
2023-03-02T13:45:56.957Z,10.27
2023-03-02T13:48:25.507Z,9.57
2023-03-02T13:50:58.843Z,9.70
2023-03-02T13:53:30.073Z,9.87
2023-03-02T13:56:01.220Z,10.40
2023-03-02T13:58:30.332Z,11.10
2023-03-02T14:00:58.426Z,10.50
2023-03-02T14:03:29.160Z,10.03
2023-03-02T14:05:59.730Z,9.97
2023-03-02T14:08:28.020Z,11.47
2023-03-02T14:10:58.271Z,11.70
2023-03-02T14:13:31.216Z,13.17
2023-03-02T14:15:59.390Z,12.77
2023-03-02T14:18:30.528Z,12.20
2023-03-02T14:21:00.250Z,10.47
2023-03-02T14:23:28.934Z,10.60
2023-03-02T14:25:57.901Z,9.63
2023-03-02T14:28:30.087Z,10.33
2023-03-02T14:30:59.332Z,10.73
2023-03-02T14:33:27.402Z,10.67
2023-03-02T14:35:59.230Z,11.67
2023-03-02T14:38:28.124Z,12.53
2023-03-02T14:40:56.447Z,12.77
2023-03-02T14:43:25.312Z,12.63
2023-03-02T14:45:53.555Z,11.00
2023-03-02T14:48:21.675Z,11.33
2023-03-02T14:50:51.194Z,11.50
2023-03-02T14:53:27.165Z,11.57
2023-03-02T14:55:55.254Z,11.63
2023-03-02T14:58:31.277Z,11.97
2023-03-02T15:00:59.416Z,12.43
2023-03-02T15:03:27.562Z,12.77
2023-03-02T15:06:01.404Z,12.80
2023-03-02T15:08:31.379Z,12.83
2023-03-02T15:10:59.341Z,12.17
2023-03-02T15:13:27.322Z,13.40
2023-03-02T15:15:55.463Z,13.73
2023-03-02T15:18:23.384Z,13.53
2023-03-02T15:20:51.368Z,12.47
2023-03-02T15:23:19.405Z,12.90
2023-03-02T15:25:48.726Z,12.43
2023-03-02T15:28:16.860Z,14.63
2023-03-02T15:30:44.826Z,13.33
2023-03-02T15:33:12.806Z,14.93
2023-03-02T15:35:41.075Z,16.07
2023-03-02T15:38:09.055Z,16.73
2023-03-02T15:40:37.197Z,16.20
2023-03-02T15:43:06.791Z,14.90
2023-03-02T15:45:34.776Z,15.20
2023-03-02T15:48:02.942Z,15.07
2023-03-02T15:50:30.880Z,15.07
2023-03-02T15:52:58.786Z,15.07
2023-03-02T15:55:27.097Z,14.87
2023-03-02T15:57:58.003Z,15.30
2023-03-02T16:00:27.783Z,15.67
2023-03-02T16:02:55.794Z,14.20
2023-03-02T16:05:24.001Z,16.07
2023-03-02T16:07:51.910Z,16.83
2023-03-02T16:10:20.730Z,17.03
2023-03-02T16:12:48.674Z,17.47
2023-03-02T16:15:17.080Z,18.03
2023-03-02T16:17:46.351Z,18.07
2023-03-02T16:20:14.623Z,18.20
2023-03-02T16:22:42.506Z,17.77
2023-03-02T16:25:11.083Z,19.13
2023-03-02T16:27:39.020Z,19.33
2023-03-02T16:30:08.170Z,18.40
2023-03-02T16:32:36.234Z,20.17
2023-03-02T16:35:06.097Z,21.13
2023-03-02T16:37:34.357Z,25.70
2023-03-02T16:40:02.277Z,31.20
2023-03-02T16:42:30.376Z,34.13
2023-03-02T16:44:58.337Z,30.63
2023-03-02T16:47:26.362Z,30.67
2023-03-02T16:49:54.322Z,30.00
2023-03-02T16:52:23.808Z,32.17
2023-03-02T16:54:51.822Z,32.23
2023-03-02T16:57:19.833Z,34.27
2023-03-02T16:59:47.776Z,34.23
2023-03-02T17:02:15.770Z,34.40
2023-03-02T17:04:43.756Z,36.97
2023-03-02T17:07:11.800Z,37.17
2023-03-02T17:09:42.070Z,38.60
2023-03-02T17:12:10.130Z,36.70
2023-03-02T17:14:38.059Z,38.07
2023-03-02T17:17:06.143Z,40.73
2023-03-02T17:19:34.335Z,42.33
2023-03-02T17:22:02.974Z,47.27
2023-03-02T17:24:31.534Z,48.73
2023-03-02T17:27:01.217Z,48.43
2023-03-02T17:29:29.256Z,46.17
2023-03-02T17:31:57.303Z,49.57
2023-03-02T17:34:28.577Z,53.53
2023-03-02T17:36:56.525Z,54.53
2023-03-02T17:39:24.521Z,58.23
2023-03-02T17:41:52.477Z,60.67
2023-03-02T17:44:22.094Z,57.17
2023-03-02T17:46:50.092Z,63.77
2023-03-02T17:49:18.016Z,60.50
2023-03-02T17:51:46.003Z,59.87
2023-03-02T17:54:13.985Z,56.47
2023-03-02T17:56:42.135Z,60.33
2023-03-02T17:59:11.043Z,56.30
2023-03-02T18:01:40.678Z,57.67
2023-03-02T18:04:08.805Z,53.50
2023-03-02T18:06:36.829Z,53.77
2023-03-02T18:09:05.026Z,50.77
2023-03-02T18:11:33.011Z,50.67
2023-03-02T18:14:01.050Z,49.27
2023-03-02T18:16:30.048Z,49.37
2023-03-02T18:18:59.348Z,52.70
2023-03-02T18:21:27.526Z,49.63
2023-03-02T18:23:55.547Z,48.83
2023-03-02T18:26:23.895Z,49.20
2023-03-02T18:28:52.033Z,48.40
2023-03-02T18:31:20.469Z,48.70
2023-03-02T18:33:49.206Z,47.57
2023-03-02T18:36:18.880Z,49.23
2023-03-02T18:38:47.265Z,49.63
2023-03-02T18:41:15.363Z,44.73
2023-03-02T18:43:43.920Z,45.03
2023-03-02T18:46:19.630Z,43.97
2023-03-02T18:48:49.524Z,44.47
2023-03-02T18:51:19.545Z,44.30
2023-03-02T18:53:48.118Z,48.50
2023-03-02T18:56:16.619Z,45.60
2023-03-02T18:58:45.334Z,43.30
2023-03-02T19:01:13.768Z,40.43
2023-03-02T19:03:41.870Z,40.20
2023-03-02T19:06:10.013Z,41.37
2023-03-02T19:08:39.689Z,40.90
2023-03-02T19:11:07.901Z,39.17
2023-03-02T19:13:36.047Z,38.83
2023-03-02T19:16:04.450Z,37.73
2023-03-02T19:18:33.194Z,37.17
2023-03-02T19:21:01.388Z,37.93
2023-03-02T19:23:29.780Z,37.00
2023-03-02T19:25:59.620Z,37.63
2023-03-02T19:28:27.752Z,35.97
2023-03-02T19:30:55.723Z,36.33
2023-03-02T19:33:24.809Z,37.60
2023-03-02T19:35:52.874Z,35.77
2023-03-02T19:38:22.724Z,34.53
2023-03-02T19:40:51.164Z,35.63
2023-03-02T19:43:20.757Z,36.60
2023-03-02T19:45:48.840Z,36.77
2023-03-02T19:48:16.829Z,37.07
2023-03-02T19:50:45.450Z,37.40
2023-03-02T19:53:14.117Z,36.90
2023-03-02T19:55:42.775Z,39.23
2023-03-02T19:58:16.637Z,37.80
2023-03-02T20:00:47.000Z,37.50
2023-03-02T20:03:15.385Z,41.77
2023-03-02T20:05:43.557Z,40.60
2023-03-02T20:08:11.956Z,39.63
2023-03-02T20:10:43.711Z,43.40
2023-03-02T20:13:12.430Z,47.67
2023-03-02T20:15:43.040Z,48.53
2023-03-02T20:18:15.287Z,47.93
2023-03-02T20:20:45.134Z,44.60
2023-03-02T20:23:13.658Z,45.53
2023-03-02T20:25:41.935Z,46.00
2023-03-02T20:28:12.057Z,47.77
2023-03-02T20:30:43.443Z,46.57
2023-03-02T20:33:13.988Z,45.37
2023-03-02T20:35:44.707Z,51.50
2023-03-02T20:38:17.334Z,51.03
2023-03-02T20:40:46.220Z,51.00
2023-03-02T20:43:14.675Z,53.23
2023-03-02T20:45:43.027Z,49.97
2023-03-02T20:48:13.261Z,48.53
2023-03-02T20:50:42.179Z,49.53
2023-03-02T20:53:11.320Z,52.03
2023-03-02T20:55:39.386Z,53.07
2023-03-02T20:58:07.537Z,49.93
2023-03-02T21:00:37.023Z,47.20
2023-03-02T21:03:06.620Z,47.00
2023-03-02T21:05:41.648Z,45.83
2023-03-02T21:08:11.198Z,43.90
2023-03-02T21:10:39.949Z,37.83
2023-03-02T21:13:08.996Z,37.03
2023-03-02T21:15:37.637Z,37.40
2023-03-02T21:18:06.060Z,37.57
2023-03-02T21:20:36.827Z,37.90
2023-03-02T21:23:05.293Z,36.77
2023-03-02T21:25:33.731Z,37.17
2023-03-02T21:28:01.701Z,39.83
2023-03-02T21:30:33.963Z,39.27
2023-03-02T21:33:02.227Z,38.10
2023-03-02T21:35:30.782Z,37.77
2023-03-02T21:38:04.710Z,37.30
2023-03-02T21:40:34.880Z,36.83
2023-03-02T21:43:05.267Z,37.93
2023-03-02T21:45:33.885Z,34.30
2023-03-02T21:48:01.857Z,34.37
2023-03-02T21:50:33.019Z,33.83
2023-03-02T21:53:02.887Z,34.20
2023-03-02T21:55:31.821Z,31.87
2023-03-02T21:57:59.892Z,32.67
2023-03-02T22:00:30.591Z,32.20
2023-03-02T22:02:58.802Z,31.70
2023-03-02T22:05:27.620Z,33.53
2023-03-02T22:07:55.719Z,32.47
2023-03-02T22:10:30.238Z,32.47
2023-03-02T22:13:07.445Z,34.47
2023-03-02T22:15:35.365Z,34.03
2023-03-02T22:18:03.305Z,35.10
2023-03-02T22:20:32.344Z,36.10
2023-03-02T22:23:00.687Z,39.23
2023-03-02T22:25:30.027Z,40.47
2023-03-02T22:27:57.929Z,43.03
2023-03-02T22:30:26.685Z,44.17
2023-03-02T22:32:55.003Z,40.57
2023-03-02T22:35:25.574Z,38.50
2023-03-02T22:38:00.437Z,36.33
2023-03-02T22:40:32.637Z,33.70
2023-03-02T22:43:11.294Z,36.80
2023-03-02T22:45:40.672Z,34.67
2023-03-02T22:48:15.115Z,35.37
2023-03-02T22:50:45.469Z,40.40
2023-03-02T22:53:25.944Z,40.93
2023-03-02T22:56:00.920Z,41.90
2023-03-02T22:58:46.726Z,38.47
2023-03-02T23:01:23.122Z,36.73
2023-03-02T23:03:53.024Z,36.17
2023-03-02T23:06:26.208Z,34.20
2023-03-02T23:08:55.118Z,33.87
2023-03-02T23:11:25.646Z,33.93
2023-03-02T23:13:54.355Z,33.20
2023-03-02T23:16:24.214Z,34.07
2023-03-02T23:18:54.109Z,33.43
2023-03-02T23:21:28.461Z,33.80
2023-03-02T23:23:56.778Z,33.83
2023-03-02T23:26:26.058Z,33.03
2023-03-02T23:28:54.050Z,31.93
2023-03-02T23:31:22.289Z,34.90
2023-03-02T23:33:50.379Z,34.83
2023-03-02T23:36:21.059Z,34.60
2023-03-02T23:38:49.386Z,33.97
2023-03-02T23:41:18.313Z,35.90
2023-03-02T23:43:47.821Z,32.47
2023-03-02T23:46:15.960Z,33.90
2023-03-02T23:48:44.461Z,33.23
2023-03-02T23:51:12.695Z,32.53
2023-03-02T23:53:40.673Z,32.87
2023-03-02T23:56:08.863Z,33.00
2023-03-02T23:58:36.850Z,33.27
